sensor_id;sensor_type;location;lat;lon;timestamp;P1;durP1;ratioP1;P2;durP2;ratioP2
51384;SDS011;37478;55.682;37.462;2023-01-29T00:01:38;19.77;;;7.25;;
51384;SDS011;37478;55.682;37.462;2023-01-29T00:04:04;17.40;;;7.90;;
51384;SDS011;37478;55.682;37.462;2023-01-29T00:06:29;18.35;;;7.57;;
51384;SDS011;37478;55.682;37.462;2023-01-29T00:08:55;17.52;;;8.75;;
51384;SDS011;37478;55.682;37.462;2023-01-29T00:11:20;21.42;;;9.63;;
51384;SDS011;37478;55.682;37.462;2023-01-29T00:13:46;19.88;;;9.07;;
51384;SDS011;37478;55.682;37.462;2023-01-29T00:16:11;17.55;;;7.63;;
51384;SDS011;37478;55.682;37.462;2023-01-29T00:18:40;22.40;;;10.10;;
51384;SDS011;37478;55.682;37.462;2023-01-29T00:21:13;24.00;;;10.65;;
51384;SDS011;37478;55.682;37.462;2023-01-29T00:23:39;24.55;;;10.70;;
51384;SDS011;37478;55.682;37.462;2023-01-29T00:26:05;22.95;;;10.38;;
51384;SDS011;37478;55.682;37.462;2023-01-29T00:28:30;26.25;;;12.05;;
51384;SDS011;37478;55.682;37.462;2023-01-29T00:30:56;23.92;;;11.63;;
51384;SDS011;37478;55.682;37.462;2023-01-29T00:33:21;29.95;;;14.10;;
51384;SDS011;37478;55.682;37.462;2023-01-29T00:35:46;24.77;;;12.60;;
51384;SDS011;37478;55.682;37.462;2023-01-29T00:38:11;22.17;;;11.27;;
51384;SDS011;37478;55.682;37.462;2023-01-29T00:40:37;25.00;;;12.10;;
51384;SDS011;37478;55.682;37.462;2023-01-29T00:43:21;24.80;;;11.95;;
51384;SDS011;37478;55.682;37.462;2023-01-29T00:46:05;27.42;;;12.10;;
51384;SDS011;37478;55.682;37.462;2023-01-29T00:48:31;26.70;;;12.90;;
51384;SDS011;37478;55.682;37.462;2023-01-29T00:50:56;26.83;;;12.15;;
51384;SDS011;37478;55.682;37.462;2023-01-29T00:53:21;24.20;;;10.95;;
51384;SDS011;37478;55.682;37.462;2023-01-29T00:55:46;24.90;;;12.32;;
51384;SDS011;37478;55.682;37.462;2023-01-29T00:58:12;22.85;;;10.82;;
51384;SDS011;37478;55.682;37.462;2023-01-29T01:00:37;21.00;;;9.80;;
51384;SDS011;37478;55.682;37.462;2023-01-29T01:03:02;20.00;;;8.13;;
51384;SDS011;37478;55.682;37.462;2023-01-29T01:05:31;16.65;;;7.60;;
51384;SDS011;37478;55.682;37.462;2023-01-29T01:07:57;12.35;;;7.00;;
51384;SDS011;37478;55.682;37.462;2023-01-29T01:10:24;14.35;;;6.80;;
51384;SDS011;37478;55.682;37.462;2023-01-29T01:12:53;14.73;;;6.78;;
51384;SDS011;37478;55.682;37.462;2023-01-29T01:15:19;12.90;;;6.20;;
51384;SDS011;37478;55.682;37.462;2023-01-29T01:17:44;12.35;;;6.65;;
51384;SDS011;37478;55.682;37.462;2023-01-29T01:20:10;9.35;;;5.30;;
51384;SDS011;37478;55.682;37.462;2023-01-29T01:22:35;9.52;;;5.43;;
51384;SDS011;37478;55.682;37.462;2023-01-29T01:25:01;8.93;;;5.25;;
51384;SDS011;37478;55.682;37.462;2023-01-29T01:27:26;9.77;;;5.05;;
51384;SDS011;37478;55.682;37.462;2023-01-29T01:29:51;9.27;;;5.13;;
51384;SDS011;37478;55.682;37.462;2023-01-29T01:32:17;10.98;;;4.53;;
51384;SDS011;37478;55.682;37.462;2023-01-29T01:34:42;11.85;;;4.85;;
51384;SDS011;37478;55.682;37.462;2023-01-29T01:37:09;7.43;;;3.80;;
51384;SDS011;37478;55.682;37.462;2023-01-29T01:39:35;8.80;;;3.65;;
51384;SDS011;37478;55.682;37.462;2023-01-29T01:42:00;7.90;;;4.18;;
51384;SDS011;37478;55.682;37.462;2023-01-29T01:47:09;6.13;;;3.55;;
51384;SDS011;37478;55.682;37.462;2023-01-29T01:49:34;6.63;;;3.35;;
51384;SDS011;37478;55.682;37.462;2023-01-29T01:52:00;5.07;;;3.55;;
51384;SDS011;37478;55.682;37.462;2023-01-29T01:54:28;7.53;;;4.13;;
51384;SDS011;37478;55.682;37.462;2023-01-29T01:56:56;7.20;;;3.70;;
51384;SDS011;37478;55.682;37.462;2023-01-29T01:59:33;7.25;;;3.55;;
51384;SDS011;37478;55.682;37.462;2023-01-29T02:01:58;5.28;;;2.80;;
51384;SDS011;37478;55.682;37.462;2023-01-29T02:04:44;9.45;;;4.40;;
51384;SDS011;37478;55.682;37.462;2023-01-29T02:07:28;6.03;;;3.90;;
51384;SDS011;37478;55.682;37.462;2023-01-29T02:10:13;7.30;;;4.10;;
51384;SDS011;37478;55.682;37.462;2023-01-29T02:12:39;5.85;;;3.83;;
51384;SDS011;37478;55.682;37.462;2023-01-29T02:15:05;8.68;;;3.88;;
51384;SDS011;37478;55.682;37.462;2023-01-29T02:17:31;7.43;;;4.18;;
51384;SDS011;37478;55.682;37.462;2023-01-29T02:28:02;6.47;;;3.80;;
51384;SDS011;37478;55.682;37.462;2023-01-29T02:30:36;6.88;;;3.83;;
51384;SDS011;37478;55.682;37.462;2023-01-29T02:40:42;7.25;;;4.00;;
51384;SDS011;37478;55.682;37.462;2023-01-29T02:43:17;8.82;;;3.65;;
51384;SDS011;37478;55.682;37.462;2023-01-29T02:45:50;9.80;;;4.55;;
51384;SDS011;37478;55.682;37.462;2023-01-29T02:48:18;8.00;;;3.97;;
51384;SDS011;37478;55.682;37.462;2023-01-29T02:51:01;6.18;;;4.05;;
51384;SDS011;37478;55.682;37.462;2023-01-29T02:53:31;5.47;;;3.22;;
51384;SDS011;37478;55.682;37.462;2023-01-29T02:55:59;5.75;;;3.67;;
51384;SDS011;37478;55.682;37.462;2023-01-29T02:58:34;9.82;;;4.00;;
51384;SDS011;37478;55.682;37.462;2023-01-29T03:03:31;4.53;;;2.60;;
51384;SDS011;37478;55.682;37.462;2023-01-29T03:08:35;5.45;;;3.33;;
51384;SDS011;37478;55.682;37.462;2023-01-29T03:11:07;9.50;;;4.07;;
51384;SDS011;37478;55.682;37.462;2023-01-29T03:13:56;6.47;;;3.05;;
51384;SDS011;37478;55.682;37.462;2023-01-29T03:16:30;5.13;;;2.67;;
51384;SDS011;37478;55.682;37.462;2023-01-29T03:18:59;5.15;;;2.67;;
51384;SDS011;37478;55.682;37.462;2023-01-29T03:21:33;5.18;;;3.35;;
51384;SDS011;37478;55.682;37.462;2023-01-29T03:24:17;5.35;;;2.88;;
51384;SDS011;37478;55.682;37.462;2023-01-29T03:27:03;4.72;;;2.70;;
51384;SDS011;37478;55.682;37.462;2023-01-29T03:29:49;3.40;;;1.92;;
51384;SDS011;37478;55.682;37.462;2023-01-29T03:32:34;4.65;;;2.58;;
51384;SDS011;37478;55.682;37.462;2023-01-29T03:35:03;4.38;;;2.58;;
51384;SDS011;37478;55.682;37.462;2023-01-29T03:37:50;6.38;;;2.70;;
51384;SDS011;37478;55.682;37.462;2023-01-29T03:40:14;4.77;;;2.77;;
51384;SDS011;37478;55.682;37.462;2023-01-29T03:42:54;4.82;;;2.53;;
51384;SDS011;37478;55.682;37.462;2023-01-29T03:45:25;5.10;;;2.30;;
51384;SDS011;37478;55.682;37.462;2023-01-29T03:48:03;5.43;;;2.80;;
51384;SDS011;37478;55.682;37.462;2023-01-29T03:50:46;2.30;;;2.03;;
51384;SDS011;37478;55.682;37.462;2023-01-29T03:56:03;4.53;;;2.87;;
51384;SDS011;37478;55.682;37.462;2023-01-29T04:01:01;5.45;;;3.03;;
51384;SDS011;37478;55.682;37.462;2023-01-29T04:05:54;6.80;;;4.40;;
51384;SDS011;37478;55.682;37.462;2023-01-29T04:08:30;7.20;;;3.60;;
51384;SDS011;37478;55.682;37.462;2023-01-29T04:10:58;7.68;;;3.60;;
51384;SDS011;37478;55.682;37.462;2023-01-29T04:13:24;5.75;;;3.30;;
51384;SDS011;37478;55.682;37.462;2023-01-29T04:15:55;6.50;;;3.55;;
51384;SDS011;37478;55.682;37.462;2023-01-29T04:18:22;6.78;;;3.28;;
51384;SDS011;37478;55.682;37.462;2023-01-29T04:20:48;12.73;;;3.78;;
51384;SDS011;37478;55.682;37.462;2023-01-29T04:23:20;6.22;;;3.20;;
51384;SDS011;37478;55.682;37.462;2023-01-29T04:25:47;7.68;;;4.03;;
51384;SDS011;37478;55.682;37.462;2023-01-29T04:30:45;7.72;;;3.42;;
51384;SDS011;37478;55.682;37.462;2023-01-29T04:33:18;6.38;;;3.67;;
51384;SDS011;37478;55.682;37.462;2023-01-29T04:40:48;8.45;;;3.88;;
51384;SDS011;37478;55.682;37.462;2023-01-29T04:48:36;6.38;;;3.83;;
51384;SDS011;37478;55.682;37.462;2023-01-29T04:51:16;7.20;;;3.50;;
51384;SDS011;37478;55.682;37.462;2023-01-29T04:56:40;6.68;;;3.67;;
51384;SDS011;37478;55.682;37.462;2023-01-29T04:59:11;7.60;;;4.75;;
51384;SDS011;37478;55.682;37.462;2023-01-29T05:01:37;8.05;;;4.35;;
51384;SDS011;37478;55.682;37.462;2023-01-29T05:04:04;8.55;;;4.45;;
51384;SDS011;37478;55.682;37.462;2023-01-29T05:06:31;6.82;;;3.45;;
51384;SDS011;37478;55.682;37.462;2023-01-29T05:08:57;9.43;;;4.30;;
51384;SDS011;37478;55.682;37.462;2023-01-29T05:11:23;9.45;;;4.15;;
51384;SDS011;37478;55.682;37.462;2023-01-29T05:13:49;9.90;;;4.72;;
51384;SDS011;37478;55.682;37.462;2023-01-29T05:16:24;9.48;;;4.43;;
51384;SDS011;37478;55.682;37.462;2023-01-29T05:18:51;10.52;;;6.22;;
51384;SDS011;37478;55.682;37.462;2023-01-29T05:21:17;6.60;;;4.57;;
51384;SDS011;37478;55.682;37.462;2023-01-29T05:23:43;7.35;;;4.60;;
51384;SDS011;37478;55.682;37.462;2023-01-29T05:26:23;12.15;;;5.03;;
51384;SDS011;37478;55.682;37.462;2023-01-29T05:29:07;8.95;;;5.20;;
51384;SDS011;37478;55.682;37.462;2023-01-29T05:31:32;8.80;;;5.50;;
51384;SDS011;37478;55.682;37.462;2023-01-29T05:33:57;10.30;;;4.75;;
51384;SDS011;37478;55.682;37.462;2023-01-29T05:36:23;13.93;;;5.47;;
51384;SDS011;37478;55.682;37.462;2023-01-29T05:38:50;8.20;;;4.97;;
51384;SDS011;37478;55.682;37.462;2023-01-29T05:41:16;7.90;;;4.15;;
51384;SDS011;37478;55.682;37.462;2023-01-29T05:43:41;8.82;;;4.50;;
51384;SDS011;37478;55.682;37.462;2023-01-29T05:46:06;6.05;;;3.85;;
51384;SDS011;37478;55.682;37.462;2023-01-29T05:48:31;10.23;;;4.43;;
51384;SDS011;37478;55.682;37.462;2023-01-29T05:51:00;10.20;;;5.15;;
51384;SDS011;37478;55.682;37.462;2023-01-29T05:53:25;7.35;;;4.30;;
51384;SDS011;37478;55.682;37.462;2023-01-29T05:55:52;11.50;;;4.80;;
51384;SDS011;37478;55.682;37.462;2023-01-29T05:58:17;8.13;;;4.00;;
51384;SDS011;37478;55.682;37.462;2023-01-29T06:00:43;7.78;;;4.20;;
51384;SDS011;37478;55.682;37.462;2023-01-29T06:03:09;6.13;;;4.40;;
51384;SDS011;37478;55.682;37.462;2023-01-29T06:05:37;9.68;;;4.43;;
51384;SDS011;37478;55.682;37.462;2023-01-29T06:08:03;7.45;;;4.07;;
51384;SDS011;37478;55.682;37.462;2023-01-29T06:10:28;6.43;;;4.32;;
51384;SDS011;37478;55.682;37.462;2023-01-29T06:12:53;9.05;;;4.30;;
51384;SDS011;37478;55.682;37.462;2023-01-29T06:15:19;8.07;;;3.97;;
51384;SDS011;37478;55.682;37.462;2023-01-29T06:17:44;6.75;;;3.50;;
51384;SDS011;37478;55.682;37.462;2023-01-29T06:20:09;8.88;;;3.78;;
51384;SDS011;37478;55.682;37.462;2023-01-29T06:22:35;6.32;;;3.75;;
51384;SDS011;37478;55.682;37.462;2023-01-29T06:25:00;5.38;;;3.53;;
51384;SDS011;37478;55.682;37.462;2023-01-29T06:27:26;7.47;;;4.32;;
51384;SDS011;37478;55.682;37.462;2023-01-29T06:29:51;7.65;;;3.53;;
51384;SDS011;37478;55.682;37.462;2023-01-29T06:32:16;7.38;;;3.47;;
51384;SDS011;37478;55.682;37.462;2023-01-29T06:34:41;8.00;;;4.20;;
51384;SDS011;37478;55.682;37.462;2023-01-29T06:37:07;5.65;;;3.75;;
51384;SDS011;37478;55.682;37.462;2023-01-29T06:39:32;7.50;;;3.97;;
51384;SDS011;37478;55.682;37.462;2023-01-29T06:41:58;8.80;;;4.63;;
51384;SDS011;37478;55.682;37.462;2023-01-29T06:44:23;6.63;;;4.43;;
51384;SDS011;37478;55.682;37.462;2023-01-29T06:46:48;7.57;;;4.03;;
51384;SDS011;37478;55.682;37.462;2023-01-29T06:49:13;7.70;;;3.78;;
51384;SDS011;37478;55.682;37.462;2023-01-29T06:51:39;8.43;;;3.75;;
51384;SDS011;37478;55.682;37.462;2023-01-29T06:54:04;7.32;;;4.10;;
51384;SDS011;37478;55.682;37.462;2023-01-29T06:56:32;7.65;;;3.67;;
51384;SDS011;37478;55.682;37.462;2023-01-29T06:58:57;5.53;;;3.35;;
51384;SDS011;37478;55.682;37.462;2023-01-29T07:01:22;7.05;;;4.03;;
51384;SDS011;37478;55.682;37.462;2023-01-29T07:03:48;8.38;;;4.25;;
51384;SDS011;37478;55.682;37.462;2023-01-29T07:06:13;9.07;;;4.07;;
51384;SDS011;37478;55.682;37.462;2023-01-29T07:08:39;7.30;;;4.45;;
51384;SDS011;37478;55.682;37.462;2023-01-29T07:11:04;7.65;;;3.80;;
51384;SDS011;37478;55.682;37.462;2023-01-29T07:13:30;7.07;;;3.83;;
51384;SDS011;37478;55.682;37.462;2023-01-29T07:16:02;5.55;;;3.47;;
51384;SDS011;37478;55.682;37.462;2023-01-29T07:18:28;4.20;;;2.85;;
51384;SDS011;37478;55.682;37.462;2023-01-29T07:20:53;5.43;;;3.13;;
51384;SDS011;37478;55.682;37.462;2023-01-29T07:23:19;7.88;;;3.53;;
51384;SDS011;37478;55.682;37.462;2023-01-29T07:25:44;4.40;;;2.45;;
51384;SDS011;37478;55.682;37.462;2023-01-29T07:28:10;8.25;;;3.70;;
51384;SDS011;37478;55.682;37.462;2023-01-29T07:30:35;4.20;;;3.00;;
51384;SDS011;37478;55.682;37.462;2023-01-29T07:33:01;9.10;;;5.18;;
51384;SDS011;37478;55.682;37.462;2023-01-29T07:35:27;8.00;;;4.10;;
51384;SDS011;37478;55.682;37.462;2023-01-29T07:37:52;8.23;;;3.30;;
51384;SDS011;37478;55.682;37.462;2023-01-29T07:40:18;9.52;;;3.78;;
51384;SDS011;37478;55.682;37.462;2023-01-29T07:42:43;6.00;;;3.40;;
51384;SDS011;37478;55.682;37.462;2023-01-29T07:45:09;11.18;;;5.47;;
51384;SDS011;37478;55.682;37.462;2023-01-29T07:47:35;8.75;;;3.42;;
51384;SDS011;37478;55.682;37.462;2023-01-29T07:50:00;5.72;;;3.28;;
51384;SDS011;37478;55.682;37.462;2023-01-29T07:52:27;7.47;;;3.78;;
51384;SDS011;37478;55.682;37.462;2023-01-29T07:54:53;5.60;;;3.70;;
51384;SDS011;37478;55.682;37.462;2023-01-29T07:57:18;4.80;;;3.15;;
51384;SDS011;37478;55.682;37.462;2023-01-29T07:59:44;8.00;;;3.15;;
51384;SDS011;37478;55.682;37.462;2023-01-29T08:02:10;5.65;;;2.95;;
51384;SDS011;37478;55.682;37.462;2023-01-29T08:16:11;4.07;;;3.20;;
51384;SDS011;37478;55.682;37.462;2023-01-29T08:18:37;4.78;;;2.88;;
51384;SDS011;37478;55.682;37.462;2023-01-29T08:21:02;6.32;;;3.67;;
51384;SDS011;37478;55.682;37.462;2023-01-29T08:23:28;5.78;;;2.92;;
51384;SDS011;37478;55.682;37.462;2023-01-29T08:25:53;5.72;;;2.65;;
51384;SDS011;37478;55.682;37.462;2023-01-29T08:28:19;4.82;;;2.45;;
51384;SDS011;37478;55.682;37.462;2023-01-29T08:30:44;5.53;;;3.28;;
51384;SDS011;37478;55.682;37.462;2023-01-29T08:33:15;5.57;;;2.67;;
51384;SDS011;37478;55.682;37.462;2023-01-29T08:35:41;6.25;;;3.03;;
51384;SDS011;37478;55.682;37.462;2023-01-29T08:38:10;4.25;;;2.92;;
51384;SDS011;37478;55.682;37.462;2023-01-29T08:40:35;5.88;;;2.95;;
51384;SDS011;37478;55.682;37.462;2023-01-29T08:43:01;5.55;;;3.00;;
51384;SDS011;37478;55.682;37.462;2023-01-29T08:45:27;6.63;;;3.40;;
51384;SDS011;37478;55.682;37.462;2023-01-29T08:47:52;5.15;;;2.88;;
51384;SDS011;37478;55.682;37.462;2023-01-29T08:50:18;4.07;;;2.60;;
51384;SDS011;37478;55.682;37.462;2023-01-29T08:52:43;9.85;;;2.85;;
51384;SDS011;37478;55.682;37.462;2023-01-29T08:55:09;6.43;;;3.38;;
51384;SDS011;37478;55.682;37.462;2023-01-29T08:57:34;5.97;;;3.20;;
51384;SDS011;37478;55.682;37.462;2023-01-29T09:00:02;6.63;;;3.28;;
51384;SDS011;37478;55.682;37.462;2023-01-29T09:02:29;5.28;;;3.50;;
51384;SDS011;37478;55.682;37.462;2023-01-29T09:04:54;6.55;;;3.15;;
51384;SDS011;37478;55.682;37.462;2023-01-29T09:07:21;7.38;;;3.42;;
51384;SDS011;37478;55.682;37.462;2023-01-29T09:09:46;8.05;;;3.22;;
51384;SDS011;37478;55.682;37.462;2023-01-29T09:12:12;5.30;;;3.05;;
51384;SDS011;37478;55.682;37.462;2023-01-29T09:14:37;5.55;;;3.15;;
51384;SDS011;37478;55.682;37.462;2023-01-29T09:17:02;4.63;;;2.80;;
51384;SDS011;37478;55.682;37.462;2023-01-29T09:19:29;5.82;;;3.00;;
51384;SDS011;37478;55.682;37.462;2023-01-29T09:21:54;7.30;;;3.38;;
51384;SDS011;37478;55.682;37.462;2023-01-29T09:24:19;5.25;;;2.65;;
51384;SDS011;37478;55.682;37.462;2023-01-29T09:26:45;8.18;;;2.60;;
51384;SDS011;37478;55.682;37.462;2023-01-29T09:29:10;5.57;;;3.05;;
51384;SDS011;37478;55.682;37.462;2023-01-29T09:31:35;6.50;;;3.70;;
51384;SDS011;37478;55.682;37.462;2023-01-29T09:34:02;4.80;;;3.08;;
51384;SDS011;37478;55.682;37.462;2023-01-29T09:36:27;4.88;;;2.75;;
51384;SDS011;37478;55.682;37.462;2023-01-29T09:38:53;3.28;;;2.13;;
51384;SDS011;37478;55.682;37.462;2023-01-29T09:41:24;5.13;;;2.90;;
51384;SDS011;37478;55.682;37.462;2023-01-29T09:43:57;4.32;;;2.70;;
51384;SDS011;37478;55.682;37.462;2023-01-29T09:51:42;4.25;;;2.97;;
51384;SDS011;37478;55.682;37.462;2023-01-29T09:56:41;4.88;;;2.85;;
51384;SDS011;37478;55.682;37.462;2023-01-29T09:59:08;3.47;;;2.40;;
51384;SDS011;37478;55.682;37.462;2023-01-29T10:01:37;3.80;;;2.40;;
51384;SDS011;37478;55.682;37.462;2023-01-29T10:17:56;9.15;;;2.65;;
51384;SDS011;37478;55.682;37.462;2023-01-29T10:25:45;3.97;;;2.92;;
51384;SDS011;37478;55.682;37.462;2023-01-29T10:28:25;4.65;;;2.60;;
51384;SDS011;37478;55.682;37.462;2023-01-29T10:30:56;2.78;;;2.30;;
51384;SDS011;37478;55.682;37.462;2023-01-29T10:33:33;4.13;;;2.72;;
51384;SDS011;37478;55.682;37.462;2023-01-29T10:36:02;4.03;;;2.90;;
51384;SDS011;37478;55.682;37.462;2023-01-29T10:38:39;5.82;;;2.85;;
51384;SDS011;37478;55.682;37.462;2023-01-29T10:43:35;4.80;;;2.65;;
51384;SDS011;37478;55.682;37.462;2023-01-29T10:46:07;6.97;;;3.95;;
51384;SDS011;37478;55.682;37.462;2023-01-29T10:53:43;4.28;;;2.65;;
51384;SDS011;37478;55.682;37.462;2023-01-29T10:56:15;6.93;;;3.28;;
51384;SDS011;37478;55.682;37.462;2023-01-29T10:59:02;5.32;;;3.00;;
51384;SDS011;37478;55.682;37.462;2023-01-29T11:01:29;8.57;;;3.20;;
51384;SDS011;37478;55.682;37.462;2023-01-29T11:04:00;6.50;;;3.60;;
51384;SDS011;37478;55.682;37.462;2023-01-29T11:06:30;5.78;;;3.97;;
51384;SDS011;37478;55.682;37.462;2023-01-29T11:08:58;5.85;;;2.97;;
51384;SDS011;37478;55.682;37.462;2023-01-29T11:14:07;5.72;;;3.28;;
51384;SDS011;37478;55.682;37.462;2023-01-29T11:16:40;6.97;;;4.70;;
51384;SDS011;37478;55.682;37.462;2023-01-29T11:19:06;7.85;;;3.25;;
51384;SDS011;37478;55.682;37.462;2023-01-29T11:21:31;6.70;;;3.65;;
51384;SDS011;37478;55.682;37.462;2023-01-29T11:24:04;7.15;;;3.78;;
51384;SDS011;37478;55.682;37.462;2023-01-29T11:26:32;6.40;;;3.17;;
51384;SDS011;37478;55.682;37.462;2023-01-29T11:29:01;6.40;;;3.50;;
51384;SDS011;37478;55.682;37.462;2023-01-29T11:31:37;7.22;;;3.83;;
51384;SDS011;37478;55.682;37.462;2023-01-29T11:34:05;6.10;;;3.70;;
51384;SDS011;37478;55.682;37.462;2023-01-29T11:36:33;5.70;;;3.80;;
51384;SDS011;37478;55.682;37.462;2023-01-29T11:39:16;6.75;;;3.60;;
51384;SDS011;37478;55.682;37.462;2023-01-29T11:41:49;11.73;;;5.57;;
51384;SDS011;37478;55.682;37.462;2023-01-29T11:44:25;5.38;;;3.38;;
51384;SDS011;37478;55.682;37.462;2023-01-29T11:46:51;6.70;;;3.45;;
51384;SDS011;37478;55.682;37.462;2023-01-29T11:49:21;5.68;;;3.40;;
51384;SDS011;37478;55.682;37.462;2023-01-29T11:51:50;7.18;;;3.67;;
51384;SDS011;37478;55.682;37.462;2023-01-29T11:54:16;6.45;;;3.65;;
51384;SDS011;37478;55.682;37.462;2023-01-29T11:56:42;6.55;;;3.92;;
51384;SDS011;37478;55.682;37.462;2023-01-29T11:59:22;8.60;;;3.95;;
51384;SDS011;37478;55.682;37.462;2023-01-29T12:01:49;8.55;;;3.67;;
51384;SDS011;37478;55.682;37.462;2023-01-29T12:04:18;11.02;;;4.45;;
51384;SDS011;37478;55.682;37.462;2023-01-29T12:06:45;8.10;;;4.30;;
51384;SDS011;37478;55.682;37.462;2023-01-29T12:09:17;14.68;;;5.05;;
51384;SDS011;37478;55.682;37.462;2023-01-29T12:11:45;8.02;;;3.92;;
51384;SDS011;37478;55.682;37.462;2023-01-29T12:14:23;9.73;;;4.13;;
51384;SDS011;37478;55.682;37.462;2023-01-29T12:19:56;6.93;;;4.03;;
51384;SDS011;37478;55.682;37.462;2023-01-29T12:22:24;6.57;;;3.50;;
51384;SDS011;37478;55.682;37.462;2023-01-29T12:27:42;7.45;;;4.38;;
51384;SDS011;37478;55.682;37.462;2023-01-29T12:32:52;8.23;;;4.22;;
51384;SDS011;37478;55.682;37.462;2023-01-29T12:35:34;9.13;;;5.00;;
51384;SDS011;37478;55.682;37.462;2023-01-29T12:38:07;7.63;;;4.32;;
51384;SDS011;37478;55.682;37.462;2023-01-29T12:40:41;9.57;;;4.90;;
51384;SDS011;37478;55.682;37.462;2023-01-29T12:43:27;6.97;;;4.00;;
51384;SDS011;37478;55.682;37.462;2023-01-29T12:45:54;9.07;;;4.85;;
51384;SDS011;37478;55.682;37.462;2023-01-29T12:48:29;11.02;;;5.22;;
51384;SDS011;37478;55.682;37.462;2023-01-29T12:50:56;8.30;;;4.22;;
51384;SDS011;37478;55.682;37.462;2023-01-29T12:53:26;8.10;;;4.45;;
51384;SDS011;37478;55.682;37.462;2023-01-29T12:55:53;11.65;;;4.82;;
51384;SDS011;37478;55.682;37.462;2023-01-29T13:00:48;5.82;;;3.47;;
51384;SDS011;37478;55.682;37.462;2023-01-29T13:03:20;8.77;;;4.22;;
51384;SDS011;37478;55.682;37.462;2023-01-29T13:06:07;8.35;;;4.20;;
51384;SDS011;37478;55.682;37.462;2023-01-29T13:08:39;8.15;;;4.15;;
51384;SDS011;37478;55.682;37.462;2023-01-29T13:11:09;10.38;;;5.00;;
51384;SDS011;37478;55.682;37.462;2023-01-29T13:13:48;10.25;;;4.20;;
51384;SDS011;37478;55.682;37.462;2023-01-29T13:16:17;7.72;;;4.20;;
51384;SDS011;37478;55.682;37.462;2023-01-29T13:18:49;11.68;;;5.55;;
51384;SDS011;37478;55.682;37.462;2023-01-29T13:21:26;9.13;;;4.03;;
51384;SDS011;37478;55.682;37.462;2023-01-29T13:24:01;7.75;;;4.45;;
51384;SDS011;37478;55.682;37.462;2023-01-29T13:26:27;7.82;;;4.93;;
51384;SDS011;37478;55.682;37.462;2023-01-29T13:28:53;9.70;;;4.22;;
51384;SDS011;37478;55.682;37.462;2023-01-29T13:31:21;7.90;;;4.43;;
51384;SDS011;37478;55.682;37.462;2023-01-29T13:34:31;7.68;;;3.75;;
51384;SDS011;37478;55.682;37.462;2023-01-29T13:36:39;13.18;;;4.60;;
51384;SDS011;37478;55.682;37.462;2023-01-29T13:39:06;8.95;;;4.47;;
51384;SDS011;37478;55.682;37.462;2023-01-29T13:41:37;9.80;;;4.57;;
51384;SDS011;37478;55.682;37.462;2023-01-29T13:44:07;12.07;;;5.30;;
51384;SDS011;37478;55.682;37.462;2023-01-29T13:46:33;7.65;;;4.72;;
51384;SDS011;37478;55.682;37.462;2023-01-29T13:49:03;9.52;;;4.75;;
51384;SDS011;37478;55.682;37.462;2023-01-29T13:51:32;10.43;;;5.10;;
51384;SDS011;37478;55.682;37.462;2023-01-29T13:54:02;8.88;;;5.20;;
51384;SDS011;37478;55.682;37.462;2023-01-29T13:58:54;12.40;;;4.60;;
51384;SDS011;37478;55.682;37.462;2023-01-29T14:04:13;11.23;;;4.68;;
51384;SDS011;37478;55.682;37.462;2023-01-29T14:06:43;8.45;;;4.97;;
51384;SDS011;37478;55.682;37.462;2023-01-29T14:11:52;8.40;;;4.22;;
51384;SDS011;37478;55.682;37.462;2023-01-29T14:17:01;12.88;;;5.07;;
51384;SDS011;37478;55.682;37.462;2023-01-29T14:19:27;10.90;;;5.25;;
51384;SDS011;37478;55.682;37.462;2023-01-29T14:21:52;10.13;;;5.28;;
51384;SDS011;37478;55.682;37.462;2023-01-29T14:24:21;10.30;;;5.28;;
51384;SDS011;37478;55.682;37.462;2023-01-29T14:26:48;10.63;;;5.57;;
51384;SDS011;37478;55.682;37.462;2023-01-29T14:29:19;11.40;;;5.07;;
51384;SDS011;37478;55.682;37.462;2023-01-29T14:31:54;9.90;;;5.05;;
51384;SDS011;37478;55.682;37.462;2023-01-29T14:34:29;7.65;;;4.40;;
51384;SDS011;37478;55.682;37.462;2023-01-29T14:36:56;12.35;;;4.93;;
51384;SDS011;37478;55.682;37.462;2023-01-29T14:47:20;10.65;;;6.20;;
51384;SDS011;37478;55.682;37.462;2023-01-29T14:49:47;11.98;;;5.03;;
51384;SDS011;37478;55.682;37.462;2023-01-29T14:52:12;9.80;;;5.00;;
51384;SDS011;37478;55.682;37.462;2023-01-29T14:54:39;13.48;;;5.18;;
51384;SDS011;37478;55.682;37.462;2023-01-29T14:57:04;10.07;;;4.63;;
51384;SDS011;37478;55.682;37.462;2023-01-29T15:02:39;16.87;;;6.63;;
51384;SDS011;37478;55.682;37.462;2023-01-29T15:05:26;12.13;;;5.65;;
51384;SDS011;37478;55.682;37.462;2023-01-29T15:07:57;9.70;;;4.88;;
51384;SDS011;37478;55.682;37.462;2023-01-29T15:15:53;19.05;;;6.60;;
51384;SDS011;37478;55.682;37.462;2023-01-29T15:18:25;11.13;;;5.70;;
51384;SDS011;37478;55.682;37.462;2023-01-29T15:21:12;15.82;;;5.28;;
51384;SDS011;37478;55.682;37.462;2023-01-29T15:23:37;11.93;;;5.85;;
51384;SDS011;37478;55.682;37.462;2023-01-29T15:26:09;14.05;;;6.25;;
51384;SDS011;37478;55.682;37.462;2023-01-29T15:28:40;15.10;;;6.32;;
51384;SDS011;37478;55.682;37.462;2023-01-29T15:31:06;9.93;;;5.63;;
51384;SDS011;37478;55.682;37.462;2023-01-29T15:33:36;11.75;;;6.25;;
51384;SDS011;37478;55.682;37.462;2023-01-29T15:36:02;15.30;;;6.65;;
51384;SDS011;37478;55.682;37.462;2023-01-29T15:38:28;12.70;;;6.10;;
51384;SDS011;37478;55.682;37.462;2023-01-29T15:40:55;11.82;;;5.93;;
51384;SDS011;37478;55.682;37.462;2023-01-29T15:45:46;15.50;;;6.80;;
51384;SDS011;37478;55.682;37.462;2023-01-29T15:48:13;14.98;;;6.72;;
51384;SDS011;37478;55.682;37.462;2023-01-29T15:50:41;12.13;;;6.85;;
51384;SDS011;37478;55.682;37.462;2023-01-29T15:53:18;13.38;;;5.95;;
51384;SDS011;37478;55.682;37.462;2023-01-29T15:55:45;14.20;;;7.25;;
51384;SDS011;37478;55.682;37.462;2023-01-29T15:58:13;12.63;;;7.10;;
51384;SDS011;37478;55.682;37.462;2023-01-29T16:00:40;15.68;;;6.90;;
51384;SDS011;37478;55.682;37.462;2023-01-29T16:03:13;14.90;;;6.75;;
51384;SDS011;37478;55.682;37.462;2023-01-29T16:05:39;11.50;;;5.80;;
51384;SDS011;37478;55.682;37.462;2023-01-29T16:08:05;9.25;;;5.45;;
51384;SDS011;37478;55.682;37.462;2023-01-29T16:10:31;12.00;;;6.70;;
51384;SDS011;37478;55.682;37.462;2023-01-29T16:12:57;17.05;;;6.22;;
51384;SDS011;37478;55.682;37.462;2023-01-29T16:17:56;12.68;;;6.20;;
51384;SDS011;37478;55.682;37.462;2023-01-29T16:20:39;11.35;;;6.00;;
51384;SDS011;37478;55.682;37.462;2023-01-29T16:25:33;13.20;;;6.57;;
51384;SDS011;37478;55.682;37.462;2023-01-29T16:28:01;13.73;;;7.30;;
51384;SDS011;37478;55.682;37.462;2023-01-29T16:30:27;13.57;;;6.32;;
51384;SDS011;37478;55.682;37.462;2023-01-29T16:32:52;16.27;;;6.45;;
51384;SDS011;37478;55.682;37.462;2023-01-29T16:35:18;11.13;;;5.63;;
51384;SDS011;37478;55.682;37.462;2023-01-29T16:37:49;12.50;;;6.18;;
51384;SDS011;37478;55.682;37.462;2023-01-29T16:40:24;15.27;;;6.10;;
51384;SDS011;37478;55.682;37.462;2023-01-29T16:42:55;14.82;;;6.93;;
51384;SDS011;37478;55.682;37.462;2023-01-29T16:45:26;13.88;;;6.28;;
51384;SDS011;37478;55.682;37.462;2023-01-29T16:47:59;11.80;;;5.05;;
51384;SDS011;37478;55.682;37.462;2023-01-29T16:50:29;13.38;;;6.55;;
51384;SDS011;37478;55.682;37.462;2023-01-29T16:53:00;14.05;;;6.47;;
51384;SDS011;37478;55.682;37.462;2023-01-29T16:55:31;18.27;;;6.70;;
51384;SDS011;37478;55.682;37.462;2023-01-29T16:57:56;15.43;;;6.80;;
51384;SDS011;37478;55.682;37.462;2023-01-29T17:00:27;9.10;;;5.53;;
51384;SDS011;37478;55.682;37.462;2023-01-29T17:02:54;12.95;;;6.28;;